Latest Weather Observations for Cerberus

IDV60801

Issued at 6:02 am EDT Monday 2 March 2015 (issued every 30 minutes, with the page automatically refreshed every 10 minutes)

About weather observations | Map of weather stations | Latest weather observations for VIC | Other Formats
Station Details ID: 086361 Name: CERBERUS Lat: -38.36 Lon: 145.18 Height: 12.69 m
Data from the previous 72 hours. | See also: Recent months at Cerberus
Date/Time
EDT
Temp
°C
App
Temp
°C
Dew
Point
Rel
Hum
%
Delta-T
°C
Wind Press
QNH
hPa
Press
MSL
hPa
Rain
since 9 am
mm
Dir
 
Spd
km/h
Gust
km/h
Spd
kts
Gust
kts
02/06:00am 9.6 8.4 8.2 91 0.7 NW 4 4 2 2 1018.2 1018.1 0.0
02/05:30am 8.6 8.0 7.2 91 0.7 CALM 0 2 0 1 1018.0 1017.9 0.0
02/05:00am 8.0 7.2 6.5 90 0.7 CALM 0 0 0 0 1017.8 1017.7 0.0
02/04:30am 8.7 8.0 7.0 89 0.8 CALM 0 0 0 0 1017.7 1017.6 0.0
02/04:00am 8.7 8.0 7.0 89 0.8 CALM 0 0 0 0 1018.0 1017.9 0.0
02/03:30am 8.7 7.6 6.8 88 0.9 NW 2 6 1 3 1018.2 1018.1 0.0
02/03:00am 9.5 8.2 7.6 88 0.9 NW 4 6 2 3 1018.6 1018.5 0.0
02/02:30am 9.7 8.4 7.6 87 1.0 WNW 4 6 2 3 1018.6 1018.5 0.0
02/02:00am 10.2 9.0 8.0 86 1.1 WNW 4 6 2 3 1018.7 1018.6 0.0
02/01:30am 10.6 9.8 8.2 85 1.2 WSW 2 4 1 2 1018.5 1018.4 0.0
02/01:00am 10.8 9.6 8.0 83 1.4 WSW 4 6 2 3 1018.2 1018.1 0.0
02/12:30am 11.2 10.0 8.2 82 1.5 WSW 4 6 2 3 1018.0 1017.9 0.0
02/12:00am 11.1 9.8 7.8 80 1.6 W 4 6 2 3 1018.1 1018.0 0.0
 
Date/Time
EDT
Temp
°C
App
Temp
°C
Dew
Point
Rel
Hum
%
Delta-T
°C
Wind Press
QNH
hPa
Press
MSL
hPa
Rain
since 9 am
mm
Dir
 
Spd
km/h
Gust
km/h
Spd
kts
Gust
kts
01/11:30pm 12.5 11.0 9.0 79 1.8 W 7 9 4 5 1018.3 1018.2 0.0
01/11:00pm 12.3 10.9 8.8 79 1.7 W 6 7 3 4 1018.4 1018.3 0.0
01/10:30pm 12.9 11.4 9.2 78 1.9 WSW 7 9 4 5 1018.5 1018.4 0.0
01/10:00pm 13.6 12.1 9.3 75 2.2 W 7 9 4 5 1018.3 1018.2 0.0
01/09:30pm 14.9 13.7 9.5 70 2.8 SSW 6 9 3 5 1018.3 1018.2 0.0
01/09:00pm 15.6 13.9 9.9 69 3.0 SSW 9 15 5 8 1018.0 1017.9 0.0
01/08:30pm 15.9 14.3 10.2 69 3.0 SSW 9 13 5 7 1017.4 1017.3 0.0
01/08:00pm 16.7 14.9 10.8 68 3.1 SSW 11 17 6 9 1017.5 1017.4 0.0
01/07:30pm 16.6 14.7 10.5 67 3.2 S 11 20 6 11 1017.4 1017.3 0.0
01/07:00pm 17.2 14.9 10.3 64 3.7 S 13 20 7 11 1017.1 1017.0 0.0
01/06:30pm 17.7 15.1 10.8 64 3.7 S 15 20 8 11 1016.8 1016.7 0.0
01/06:00pm 18.3 15.6 11.6 65 3.7 SSW 17 28 9 15 1016.8 1016.7 0.0
01/05:30pm 18.9 15.9 11.9 64 3.9 SSW 19 30 10 16 1016.3 1016.2 0.0
01/05:00pm 18.8 15.0 11.1 61 4.2 SSW 22 35 12 19 1015.9 1015.8 0.0
01/04:30pm 19.2 15.1 10.2 56 4.8 SSW 22 33 12 18 1015.7 1015.6 0.0
01/04:00pm 18.7 14.8 10.8 60 4.3 SSW 22 32 12 17 1015.6 1015.5 0.0
01/03:30pm 19.9 16.1 11.1 57 4.8 SW 22 32 12 17 1015.5 1015.4 0.0
01/03:00pm 19.4 15.1 10.7 57 4.7 SW 24 35 13 19 1015.3 1015.2 0.0
01/02:30pm 20.1 16.7 11.3 57 4.8 SW 20 32 11 17 1015.1 1015.0 0.0
01/02:00pm 19.6 16.2 11.1 58 4.6 SSW 20 28 11 15 1014.9 1014.8 0.0
01/01:30pm 19.8 16.1 10.2 54 5.2 SW 20 33 11 18 1014.6 1014.5 0.0
01/01:00pm 20.6 17.6 11.8 57 4.9 SSW 19 28 10 15 1014.6 1014.5 0.0
01/12:30pm 19.8 16.5 11.6 59 4.5 SSW 20 32 11 17 1014.5 1014.4 0.0
01/12:00pm 19.2 15.6 10.7 58 4.6 SSW 20 30 11 16 1014.1 1014.0 0.0
01/11:30am 19.1 15.8 10.9 59 4.5 SW 19 30 10 16 1013.8 1013.7 0.0
01/11:00am 18.5 14.8 10.1 58 4.5 SSW 20 30 11 16 1013.2 1013.2 0.0
01/10:30am 18.7 14.9 9.8 56 4.7 SSW 20 33 11 18 1012.8 1012.8 0.0
01/10:00am 19.0 15.3 10.3 57 4.7 SSW 20 30 11 16 1012.3 1012.3 0.0
01/09:30am 18.3 15.0 10.9 62 4.0 SSW 19 32 10 17 1011.7 1011.7 0.0
01/09:00am 18.0 15.1 11.1 64 3.7 SSW 17 24 9 13 1011.2 1011.2 11.0
01/08:30am 16.9 14.2 10.3 65 3.5 SSW 15 26 8 14 1010.9 1010.9 11.0
01/08:00am 17.0 14.4 10.8 67 3.3 SSW 15 30 8 16 1010.3 1010.3 11.0
01/07:30am 16.4 12.8 10.5 68 3.1 SSW 20 30 11 16 1009.6 1009.6 11.0
01/07:00am 16.4 13.6 11.3 72 2.8 SW 17 24 9 13 1009.0 1009.0 11.0
01/06:30am 16.4 14.3 11.1 71 2.8 SW 13 19 7 10 1008.5 1008.5 11.0
01/06:00am 16.6 13.7 11.1 70 3.0 SW 17 26 9 14 1007.9 1007.9 11.0
01/05:30am 16.6 13.3 11.7 73 2.7 SW 20 33 11 18 1007.1 1007.1 11.0
01/05:00am 16.4 13.2 11.8 74 2.5 SW 20 35 11 19 1006.7 1006.7 11.0
01/04:30am 16.6 12.9 12.6 77 2.2 SW 24 39 13 21 1006.2 1006.2 11.0
01/04:00am 17.0 14.5 13.5 80 2.0 SSW 19 30 10 16 1006.0 1006.0 11.0
01/03:30am 17.0 13.9 13.5 80 2.0 SSW 22 35 12 19 1005.7 1005.7 11.0
01/03:00am 16.9 14.1 14.4 85 1.4 SSW 22 35 12 19 1005.6 1005.6 11.0
01/02:30am 16.8 14.9 15.3 91 0.9 SW 19 35 10 19 1005.7 1005.7 11.0
01/02:00am 16.9 15.2 15.8 93 0.6 SW 19 28 10 15 1005.6 1005.6 11.0
01/01:30am 17.3 15.7 16.0 92 0.8 SW 19 33 10 18 1005.6 1005.6 10.4
01/01:00am 17.8 18.3 16.5 92 0.8 WSW 9 13 5 7 1005.3 1005.3 9.8
01/12:30am 18.2 19.2 16.9 92 0.8 SSW 7 17 4 9 1005.1 1005.1 8.8
01/12:00am 18.3 20.7 17.0 92 0.8 CALM 0 0 0 0 1005.3 1005.3 8.4
 
Date/Time
EDT
Temp
°C
App
Temp
°C
Dew
Point
Rel
Hum
%
Delta-T
°C
Wind Press
QNH
hPa
Press
MSL
hPa
Rain
since 9 am
mm
Dir
 
Spd
km/h
Gust
km/h
Spd
kts
Gust
kts
28/11:30pm 18.1 20.0 16.6 91 0.9 WSW 2 6 1 3 1005.2 1005.2 7.8
28/11:00pm 18.3 19.9 16.8 91 0.9 WSW 4 6 2 3 1005.8 1005.8 6.4
28/10:30pm 18.4 19.6 16.9 91 0.9 WSW 6 9 3 5 1005.4 1005.4 4.0
28/10:00pm 18.4 19.0 16.7 90 1.0 WSW 9 17 5 9 1005.0 1005.0 3.0
28/09:30pm 18.7 16.8 16.7 88 1.2 SW 22 35 12 19 1005.0 1005.0 1.6
28/09:00pm 19.5 14.5 16.2 81 2.0 SW 37 59 20 32 1004.5 1004.5 0.6
28/08:43pm 23.0 20.1 15.1 61 4.7 WSW 24 91 13 49 1003.1 1003.1 0.0
28/08:42pm 23.6 22.1 15.4 60 4.9 WSW 17 52 9 28 1003.0 1003.0 0.0
28/08:41pm 23.8 22.6 15.0 57 5.3 W 15 43 8 23 1002.4 1002.4 0.0
28/08:30pm 27.2 25.8 10.8 36 9.3 NNW 9 19 5 10 1000.1 1000.1 0.0
28/08:00pm 25.9 25.9 13.7 47 7.2 NNE 6 13 3 7 999.0 999.0 0.0
28/07:30pm 26.7 26.3 13.1 43 8.0 NE 7 15 4 8 999.1 999.1 0.0
28/07:00pm 27.6 27.3 12.8 40 8.7 ENE 6 7 3 4 999.2 999.2 0.0
28/06:30pm 28.5 28.2 13.2 39 9.0 NE 7 13 4 7 999.7 999.7 0.0
28/06:00pm 29.1 28.6 12.5 36 9.8 NE 7 13 4 7 1000.3 1000.3 0.0
28/05:30pm 28.6 27.7 11.2 34 10.0 NE 7 15 4 8 1001.1 1001.1 0.0
28/05:00pm 27.2 27.0 14.6 46 7.6 E 9 13 5 7 1001.6 1001.6 0.0
28/04:30pm 26.1 27.2 16.6 55 5.9 E 6 9 3 5 1002.1 1002.1 0.0
28/04:00pm 23.4 24.1 15.5 61 4.8 SE 6 9 3 5 1002.8 1002.8 0.0
28/03:30pm 26.1 26.4 14.9 50 6.7 ESE 7 9 4 5 1002.5 1002.5 0.0
28/03:00pm 25.2 26.1 16.1 57 5.6 SE 6 9 3 5 1002.9 1002.9 0.0
28/02:30pm 25.1 25.7 15.4 55 5.9 SE 6 7 3 4 1003.5 1003.5 0.0
28/02:00pm 24.7 24.8 12.6 47 7.0 NNW 4 7 2 4 1004.0 1004.0 0.0
28/01:30pm 24.4 23.9 13.9 52 6.2 N 9 17 5 9 1004.7 1004.7 0.0
28/01:00pm 24.1 23.6 14.8 56 5.6 NNW 11 19 6 10 1004.8 1004.8 0.0
28/12:30pm 24.0 24.3 15.0 57 5.4 NNW 7 15 4 8 1005.2 1005.2 0.0
28/12:00pm 22.1 23.6 15.7 67 3.8 WSW 2 7 1 4 1005.9 1005.9 0.0
28/11:30am 20.6 21.7 15.6 73 3.0 N 4 6 2 3 1005.9 1005.9 0.0
28/11:00am 19.6 20.0 15.3 76 2.5 NNE 7 13 4 7 1005.5 1005.5 0.0
28/10:30am 19.6 19.8 14.8 74 2.8 NNE 7 11 4 6 1005.6 1005.6 0.0
28/10:00am 19.9 19.8 14.9 73 2.9 NNE 9 15 5 8 1005.9 1005.9 0.0
28/09:30am 18.9 19.1 14.8 77 2.4 NNE 7 13 4 7 1006.1 1006.1 0.0
28/09:00am 18.1 18.4 14.4 79 2.1 NNE 6 9 3 5 1006.4 1006.4 0.0
28/08:30am 17.2 18.1 13.9 81 1.9 NNE 2 4 1 2 1006.3 1006.3 0.0
28/08:00am 16.8 17.2 13.7 82 1.8 NNE 4 7 2 4 1005.8 1005.8 0.0
28/07:30am 16.6 16.6 13.7 83 1.6 N 6 9 3 5 1005.9 1005.9 0.0
28/07:00am 16.5 15.6 13.8 84 1.5 N 11 20 6 11 1006.2 1006.2 0.0
28/06:30am 17.1 17.3 14.6 85 1.4 NNE 7 13 4 7 1006.0 1006.0 0.0
28/06:00am 16.8 17.3 14.1 84 1.5 ENE 4 7 2 4 1005.9 1005.9 0.0
28/05:30am 16.5 16.4 13.4 82 1.7 NE 6 9 3 5 1005.9 1005.9 0.0
28/05:00am 16.4 16.2 13.5 83 1.6 ENE 7 9 4 5 1006.3 1006.3 0.0
28/04:30am 15.7 15.9 13.0 84 1.5 ESE 4 6 2 3 1007.1 1007.1 0.0
28/04:00am 15.5 16.4 12.8 84 1.5 CALM 0 0 0 0 1007.7 1007.7 0.0
28/03:30am 15.5 16.3 12.6 83 1.6 CALM 0 0 0 0 1008.4 1008.4 0.0
28/03:00am 15.6 16.0 12.5 82 1.7 SE 2 6 1 3 1008.9 1008.9 0.0
28/02:30am 16.0 16.4 12.6 80 1.9 SE 2 4 1 2 1009.0 1009.0 0.0
28/02:00am 15.9 16.2 12.3 79 2.0 SSE 2 4 1 2 1009.6 1009.6 0.0
28/01:30am 16.6 16.3 12.8 78 2.1 ESE 6 9 3 5 1009.6 1009.6 0.0
28/01:00am 16.5 16.2 12.8 79 2.1 SE 6 9 3 5 1010.2 1010.2 0.0
28/12:30am 16.2 16.3 12.6 79 2.0 SE 4 7 2 4 1010.5 1010.5 0.0
28/12:00am 16.3 15.9 12.5 78 2.1 SSE 6 7 3 4 1010.8 1010.8 0.0
 
Date/Time
EDT
Temp
°C
App
Temp
°C
Dew
Point
Rel
Hum
%
Delta-T
°C
Wind Press
QNH
hPa
Press
MSL
hPa
Rain
since 9 am
mm
Dir
 
Spd
km/h
Gust
km/h
Spd
kts
Gust
kts
27/11:30pm 16.4 16.0 12.4 77 2.2 SSE 6 9 3 5 1011.1 1011.1 0.0
27/11:00pm 16.6 16.1 12.6 77 2.2 SSE 7 13 4 7 1011.2 1011.2 0.0
27/10:30pm 16.7 16.4 12.8 78 2.2 SSE 6 9 3 5 1011.3 1011.3 0.0
27/10:00pm 16.7 16.4 12.8 78 2.2 SSE 6 7 3 4 1011.1 1011.1 0.0
27/09:30pm 16.9 16.7 13.0 78 2.2 SSE 6 9 3 5 1010.8 1010.8 0.0
27/09:00pm 16.7 16.4 12.8 78 2.2 SSE 6 9 3 5 1010.7 1010.7 0.0
27/08:30pm 17.0 16.8 12.9 77 2.3 SSE 6 9 3 5 1010.4 1010.4 0.0
27/08:00pm 17.1 16.6 12.8 76 2.4 S 7 13 4 7 1010.2 1010.2 0.0
27/07:30pm 17.4 16.9 12.7 74 2.6 SSE 7 11 4 6 1009.9 1009.9 0.0
27/07:00pm 17.8 17.4 12.9 73 2.7 SSE 7 13 4 7 1009.6 1009.6 0.0
27/06:30pm 18.1 17.3 13.0 72 2.9 SSE 9 15 5 8 1009.7 1009.7 0.0
27/06:00pm 18.3 17.6 13.2 72 2.9 SSE 9 15 5 8 1009.7 1009.7 0.0
27/05:30pm 18.7 17.2 13.1 70 3.2 SSE 13 19 7 10 1009.8 1009.8 0.0
27/05:00pm 18.6 17.2 13.5 72 2.9 S 13 20 7 11 1010.0 1010.0 0.0
27/04:30pm 19.2 17.9 13.6 70 3.2 S 13 20 7 11 1010.3 1010.3 0.0
27/04:00pm 19.4 18.0 13.3 68 3.5 S 13 20 7 11 1010.2 1010.2 0.0
27/03:30pm 19.9 18.3 13.8 68 3.5 SSW 15 20 8 11 1010.1 1010.1 0.0
27/03:00pm 20.6 19.5 14.3 67 3.7 S 13 20 7 11 1010.2 1010.2 0.0
27/02:30pm 21.2 21.0 14.6 66 3.9 SE 9 13 5 7 1010.3 1010.3 0.0
27/02:00pm 20.4 19.3 14.3 68 3.5 S 13 19 7 10 1010.8 1010.8 0.0
27/01:30pm 21.1 19.9 14.0 64 4.1 SSE 13 20 7 11 1010.5 1010.5 0.0
27/01:00pm 19.9 18.8 14.3 70 3.3 S 13 20 7 11 1010.7 1010.7 0.0
27/12:30pm 20.0 19.7 14.4 70 3.3 SSW 9 15 5 8 1011.2 1011.2 0.0
27/12:00pm 20.0 19.8 14.6 71 3.2 SE 9 11 5 6 1011.1 1011.1 0.0
27/11:30am 19.9 19.6 14.3 70 3.2 SSE 9 15 5 8 1011.3 1011.3 0.0
27/11:00am 20.0 19.8 15.8 77 2.5 S 11 15 6 8 1011.5 1011.5 0.0
27/10:30am 19.4 19.3 14.0 71 3.1 SW 7 19 4 10 1011.5 1011.5 0.0
27/10:00am 20.0 20.7 14.6 71 3.2 ESE 4 7 2 4 1011.0 1011.0 0.0
27/09:30am 19.4 20.3 16.2 82 1.9 N 6 9 3 5 1011.0 1011.0 0.0
27/09:00am 17.8 18.7 16.0 89 1.1 NNE 6 9 3 5 1010.9 1010.9 0.0
27/08:30am 17.0 18.9 15.7 92 0.8 CALM 0 4 0 2 1010.8 1010.8 0.0
27/08:00am 13.2 13.9 12.1 93 0.6 CALM 0 0 0 0 1010.7 1010.7 0.0
27/07:30am 11.8 12.0 10.7 93 0.6 CALM 0 0 0 0 1010.4 1010.4 0.0
27/07:00am 10.9 10.9 9.7 92 0.6 CALM 0 0 0 0 1010.1 1010.1 0.0
27/06:30am 10.2 9.6 8.8 91 0.7 N 2 2 1 1 1010.0 1010.0 0.0

Other Formats:

Comma delimited format used in spreadsheet applications
http://www.bom.gov.au/fwo/IDV60801/IDV60801.94898.axf

JavaScript Object Notation format (JSON) in row-major order
http://www.bom.gov.au/fwo/IDV60801/IDV60801.94898.json